Tucson, AZ

5:46 PM MST on February 10, 2016 (GMT -0700)
CAID Industries | | Change Station
CLOSE
Current Station
Personal Weather Station
Location: Tucson, AZ
Elevation: 2572 ft
Nearby Weather Stations

Elev 2572 ft 32.14 °N, 110.94 °W | Updated 5 minutes ago

Clear
Clear
80.1 °F
Feels Like 78 °F
N
0.0
Wind Variable Wind from NW
Gusts 4.0 mph

Today
High -- | Low -- °F
--% Chance of Precip.
Yesterday
High -- | Low -- °F
Precip. -- in
Pressure 30.08 in
Visibility 10.0 miles
Clouds Clear
Heat Index 78 °F
Dew Point 14 °F
Humidity 8%
Rainfall 0.00 in
Snow Depth Not available.
7:11 AM 6:05 PM
Waxing Crescent, 8% visible
METAR KTUS 102353Z 36005KT 10SM CLR 28/M12 A3017 RMK AO2 SLP185 T02831117 10289 20228 56010
Pressure 30.08 in
Visibility 10.0 miles
Clouds Clear
Heat Index 78 °F
Dew Point 14 °F
Humidity 8%
Rainfall 0.00 in
Snow Depth Not available.
7:11 AM 6:05 PM
Waxing Crescent, 8% visible
METAR KTUS 102353Z 36005KT 10SM CLR 28/M12 A3017 RMK AO2 SLP185 T02831117 10289 20228 56010

10-Day Weather Forecast

Almanac

Astronomy

Feb. 10, 2016 Rise Set
Actual Time
Civil Twilight
Nautical Twilight
Astronomical Twilight
Moon
Length of Visible Light
Length of Day
Tomorrow will be .
, % of the Moon is Illuminated

Today's Extremes

State Highs State Lows

Community

WunderPhotos

Upload Photos

1,891,948 photos uploaded!

WunderBlog® & News

Nearby

Air Quality

  Air Quality AQ Index Pollutant
Not available.

Snow Depth

Station Depth Elevation

Earthquake Activity

City Distance Mag. Time & Date
Minimum magnitude displayed is 2.5.

Coastal Water Temperatures

Place Temperature

Stations

Nearby Weather Stations

Station Location Temp. Windchill Dew Point Humidity Wind Precip. Elev Updated Type
                   

Watches & Warnings

There are currently no watches in effect.